createdAt,value
2022-12-04T00:01:25.771Z,100543.50
2022-12-04T00:03:28.671Z,100551.78
2022-12-04T00:05:31.704Z,100555.41
2022-12-04T00:07:36.206Z,100548.66
2022-12-04T00:09:39.092Z,100551.78
2022-12-04T00:11:41.899Z,100542.53
2022-12-04T00:13:45.414Z,100539.84
2022-12-04T00:15:48.232Z,100536.78
2022-12-04T00:17:51.238Z,100538.19
2022-12-04T00:19:54.366Z,100545.38
2022-12-04T00:21:57.442Z,100552.28
2022-12-04T00:24:01.624Z,100542.81
2022-12-04T00:26:06.510Z,100543.63
2022-12-04T00:28:09.194Z,100549.41
2022-12-04T00:30:12.894Z,100544.25
2022-12-04T00:32:16.007Z,100545.09
2022-12-04T00:34:19.526Z,100539.84
2022-12-04T00:36:25.268Z,100539.84
2022-12-04T00:38:28.669Z,100532.41
2022-12-04T00:40:32.976Z,100530.25
2022-12-04T00:42:35.923Z,100522.16
2022-12-04T00:44:38.767Z,100529.06
2022-12-04T00:46:41.544Z,100525.69
2022-12-04T00:48:44.891Z,100535.22
2022-12-04T00:50:47.697Z,100529.13
2022-12-04T00:52:50.493Z,100527.88
2022-12-04T00:54:53.582Z,100524.91
2022-12-04T00:56:57.672Z,100521.28
2022-12-04T00:59:02.183Z,100520.91
2022-12-04T01:01:07.256Z,100514.88
2022-12-04T01:03:10.607Z,100513.50
2022-12-04T01:05:14.113Z,100518.13
2022-12-04T01:07:16.946Z,100509.66
2022-12-04T01:09:20.043Z,100517.06
2022-12-04T01:11:24.683Z,100515.50
2022-12-04T01:13:28.866Z,100515.66
2022-12-04T01:15:31.681Z,100518.50
2022-12-04T01:17:34.501Z,100522.03
2022-12-04T01:19:37.301Z,100518.63
2022-12-04T01:21:40.523Z,100524.41
2022-12-04T01:23:44.057Z,100524.53
2022-12-04T01:25:54.743Z,100524.19
2022-12-04T01:27:57.785Z,100530.28
2022-12-04T01:30:02.039Z,100524.78
2022-12-04T01:32:05.435Z,100519.53
2022-12-04T01:34:08.285Z,100521.84
2022-12-04T01:36:14.211Z,100526.31
2022-12-04T01:38:17.036Z,100526.56
2022-12-04T01:40:19.822Z,100541.22
2022-12-04T01:42:22.629Z,100539.41
2022-12-04T01:44:27.407Z,100532.88
2022-12-04T01:46:31.593Z,100522.03
2022-12-04T01:48:35.801Z,100523.50
2022-12-04T01:50:38.952Z,100522.50
2022-12-04T01:52:41.903Z,100522.28
2022-12-04T01:54:48.602Z,100535.50
2022-12-04T01:56:56.138Z,100536.78
2022-12-04T01:59:02.657Z,100531.09
2022-12-04T02:01:09.102Z,100522.53
2022-12-04T02:03:14.683Z,100523.44
2022-12-04T02:05:21.127Z,100528.84
2022-12-04T02:07:24.104Z,100524.41
2022-12-04T02:09:27.618Z,100524.47
2022-12-04T02:11:39.549Z,100527.28
2022-12-04T02:13:55.466Z,100535.31
2022-12-04T02:16:06.621Z,100540.25
2022-12-04T02:18:19.788Z,100533.41
2022-12-04T02:20:32.216Z,100529.88
2022-12-04T02:22:55.011Z,100530.00
2022-12-04T02:25:06.773Z,100527.16
2022-12-04T02:27:19.039Z,100527.66
2022-12-04T02:29:35.752Z,100522.47
2022-12-04T02:31:44.711Z,100522.28
2022-12-04T02:33:52.116Z,100517.84
2022-12-04T02:36:04.055Z,100526.25
2022-12-04T02:38:13.203Z,100524.91
2022-12-04T02:40:22.079Z,100534.09
2022-12-04T02:42:33.929Z,100524.66
2022-12-04T02:44:43.218Z,100520.38
2022-12-04T02:46:49.910Z,100530.81
2022-12-04T02:48:56.966Z,100531.41
2022-12-04T02:51:03.651Z,100537.59
2022-12-04T02:53:09.938Z,100532.72
2022-12-04T02:55:18.744Z,100521.63
2022-12-04T02:57:26.063Z,100514.38
2022-12-04T02:59:34.704Z,100513.75
2022-12-04T03:01:43.175Z,100510.47
2022-12-04T03:03:50.774Z,100506.34
2022-12-04T03:05:59.686Z,100506.66
2022-12-04T03:08:09.532Z,100511.38
2022-12-04T03:10:16.349Z,100500.84
2022-12-04T03:12:22.915Z,100494.25
2022-12-04T03:14:29.964Z,100493.81
2022-12-04T03:16:38.480Z,100491.34
2022-12-04T03:18:45.498Z,100486.47
2022-12-04T03:20:52.511Z,100487.63
2022-12-04T03:23:00.531Z,100501.59
2022-12-04T03:25:05.760Z,100493.81
2022-12-04T03:27:15.667Z,100492.91
2022-12-04T03:29:22.459Z,100503.41
2022-12-04T03:31:32.672Z,100497.38
2022-12-04T03:33:43.641Z,100500.00
2022-12-04T03:35:53.295Z,100498.44
2022-12-04T03:38:04.719Z,100492.47
2022-12-04T03:40:18.399Z,100493.56
2022-12-04T03:42:26.315Z,100485.41
2022-12-04T03:44:37.412Z,100492.41
2022-12-04T03:46:46.786Z,100490.63
2022-12-04T03:48:56.478Z,100489.72
2022-12-04T03:51:04.780Z,100497.50
2022-12-04T03:53:13.184Z,100489.03
2022-12-04T03:55:24.514Z,100488.16
2022-12-04T03:57:32.280Z,100486.28
2022-12-04T03:59:39.207Z,100479.75
2022-12-04T04:01:48.539Z,100485.72
2022-12-04T04:03:56.053Z,100483.06
2022-12-04T04:06:03.030Z,100475.00
2022-12-04T04:08:28.124Z,100480.50
2022-12-04T04:10:31.052Z,100476.63
2022-12-04T04:12:39.731Z,100478.81
2022-12-04T04:15:06.384Z,100473.72
2022-12-04T04:17:32.274Z,100468.63
2022-12-04T04:19:59.660Z,100464.78
2022-12-04T04:22:25.842Z,100474.28
2022-12-04T04:24:33.586Z,100469.13
2022-12-04T04:26:40.602Z,100467.72
2022-12-04T04:28:43.944Z,100457.38
2022-12-04T04:30:46.764Z,100454.34
2022-12-04T04:32:58.393Z,100459.91
2022-12-04T04:35:10.218Z,100459.44
2022-12-04T04:37:23.396Z,100457.84
2022-12-04T04:39:32.873Z,100462.81
2022-12-04T04:41:45.321Z,100455.34
2022-12-04T04:43:54.644Z,100455.78
2022-12-04T04:46:02.422Z,100446.38
2022-12-04T04:48:10.278Z,100459.03
2022-12-04T04:50:17.275Z,100458.16
2022-12-04T04:52:23.319Z,100463.56
2022-12-04T04:54:26.984Z,100471.16
2022-12-04T04:56:29.894Z,100475.03
2022-12-04T04:58:32.784Z,100475.22
2022-12-04T05:00:36.141Z,100476.53
2022-12-04T05:02:39.168Z,100483.31
2022-12-04T05:04:41.963Z,100480.31
2022-12-04T05:06:46.106Z,100482.94
2022-12-04T05:08:49.277Z,100481.97
2022-12-04T05:10:52.182Z,100485.47
2022-12-04T05:12:54.967Z,100485.63
2022-12-04T05:14:57.786Z,100489.63
2022-12-04T05:17:02.072Z,100483.38
2022-12-04T05:19:23.121Z,100473.34
2022-12-04T05:21:26.000Z,100483.06
2022-12-04T05:23:30.248Z,100484.16
2022-12-04T05:25:33.048Z,100480.81
2022-12-04T05:27:35.837Z,100484.03
2022-12-04T05:29:38.899Z,100478.03
2022-12-04T05:31:41.782Z,100478.50
2022-12-04T05:33:44.572Z,100475.75
2022-12-04T05:35:57.411Z,100477.63
2022-12-04T05:38:00.191Z,100479.88
2022-12-04T05:40:05.481Z,100467.69
2022-12-04T05:42:08.351Z,100473.63
2022-12-04T05:44:11.203Z,100475.97
2022-12-04T05:46:14.093Z,100475.91
2022-12-04T05:48:16.868Z,100478.50
2022-12-04T05:50:19.766Z,100481.19
2022-12-04T05:52:23.718Z,100488.66
2022-12-04T05:54:26.724Z,100484.72
2022-12-04T05:56:30.883Z,100482.50
2022-12-04T05:58:35.817Z,100486.66
2022-12-04T06:00:38.593Z,100482.19
2022-12-04T06:02:41.473Z,100476.25
2022-12-04T06:04:44.375Z,100478.50
2022-12-04T06:06:47.244Z,100492.94
2022-12-04T06:08:51.134Z,100486.09
2022-12-04T06:10:53.970Z,100492.19
2022-12-04T06:12:58.195Z,100483.69
2022-12-04T06:15:01.062Z,100486.31
2022-12-04T06:17:04.814Z,100494.56
2022-12-04T06:19:09.470Z,100489.88
2022-12-04T06:21:12.518Z,100482.00
2022-12-04T06:23:15.314Z,100475.63
2022-12-04T06:25:20.635Z,100477.53
2022-12-04T06:27:27.923Z,100480.03
2022-12-04T06:29:33.235Z,100475.84
2022-12-04T06:31:38.073Z,100477.34
2022-12-04T06:33:41.147Z,100485.19
2022-12-04T06:35:43.971Z,100480.66
2022-12-04T06:37:46.822Z,100481.75
2022-12-04T06:39:49.781Z,100477.41
2022-12-04T06:41:52.831Z,100480.63
2022-12-04T06:43:56.497Z,100478.44
2022-12-04T06:46:05.875Z,100482.75
2022-12-04T06:48:08.703Z,100480.81
2022-12-04T06:50:12.053Z,100475.84
2022-12-04T06:52:14.852Z,100475.69
2022-12-04T06:54:17.677Z,100476.72
2022-12-04T06:56:23.645Z,100482.63
2022-12-04T06:58:26.695Z,100483.53
2022-12-04T07:00:29.635Z,100478.09
2022-12-04T07:02:33.836Z,100476.56
2022-12-04T07:04:36.705Z,100473.19
2022-12-04T07:06:40.276Z,100479.75
2022-12-04T07:08:43.605Z,100484.00
2022-12-04T07:10:46.400Z,100485.59
2022-12-04T07:12:49.202Z,100478.03
2022-12-04T07:14:52.004Z,100483.13
2022-12-04T07:16:54.937Z,100484.91
2022-12-04T07:18:59.235Z,100481.38
2022-12-04T07:21:06.008Z,100480.09
2022-12-04T07:23:08.770Z,100483.53
2022-12-04T07:25:12.954Z,100482.78
2022-12-04T07:27:15.775Z,100479.13
2022-12-04T07:29:18.657Z,100478.97
2022-12-04T07:31:23.782Z,100487.59
2022-12-04T07:33:26.721Z,100482.50
2022-12-04T07:35:30.942Z,100487.31
2022-12-04T07:37:36.790Z,100489.78
2022-12-04T07:39:39.587Z,100489.59
2022-12-04T07:41:42.450Z,100496.00
2022-12-04T07:43:45.675Z,100492.00
2022-12-04T07:45:48.495Z,100488.50
2022-12-04T07:47:51.333Z,100492.84
2022-12-04T07:49:54.564Z,100488.44
2022-12-04T07:51:58.938Z,100484.22
2022-12-04T07:54:03.952Z,100480.72
2022-12-04T07:56:08.196Z,100479.09
2022-12-04T07:58:11.052Z,100476.34
2022-12-04T08:00:15.890Z,100482.31
2022-12-04T08:02:18.623Z,100484.00
2022-12-04T08:04:21.396Z,100485.53
2022-12-04T08:06:26.051Z,100485.75
2022-12-04T08:08:30.261Z,100483.94
2022-12-04T08:10:33.070Z,100485.81
2022-12-04T08:12:35.973Z,100480.84
2022-12-04T08:14:38.897Z,100476.78
2022-12-04T08:16:41.719Z,100478.56
2022-12-04T08:18:48.701Z,100479.28
2022-12-04T08:20:51.683Z,100478.63
2022-12-04T08:22:54.456Z,100479.97
2022-12-04T08:24:58.599Z,100475.19
2022-12-04T08:27:01.995Z,100476.44
2022-12-04T08:29:06.578Z,100472.84
2022-12-04T08:31:12.707Z,100467.69
2022-12-04T08:33:15.624Z,100468.72
2022-12-04T08:35:18.366Z,100464.75
2022-12-04T08:37:21.236Z,100465.56
2022-12-04T08:39:24.172Z,100476.03
2022-12-04T08:41:28.740Z,100477.81
2022-12-04T08:43:31.985Z,100471.69
2022-12-04T08:45:34.812Z,100480.63
2022-12-04T08:47:37.568Z,100467.16
2022-12-04T08:49:41.259Z,100480.31
2022-12-04T08:51:44.048Z,100474.31
2022-12-04T08:53:47.037Z,100480.66
2022-12-04T08:55:50.214Z,100484.31
2022-12-04T08:57:54.780Z,100478.31
2022-12-04T08:59:57.921Z,100480.94
2022-12-04T09:02:01.070Z,100484.44
2022-12-04T09:04:04.004Z,100472.38
2022-12-04T09:06:08.344Z,100476.59
2022-12-04T09:08:11.303Z,100471.16
2022-12-04T09:10:14.260Z,100471.09
2022-12-04T09:12:17.142Z,100489.59
2022-12-04T09:14:25.629Z,100480.31
2022-12-04T09:16:28.563Z,100478.88
2022-12-04T09:18:31.779Z,100473.78
2022-12-04T09:20:34.666Z,100476.81
2022-12-04T09:23:02.303Z,100486.00
2022-12-04T09:25:01.528Z,100492.34
2022-12-04T09:27:05.328Z,100490.91
2022-12-04T09:29:12.372Z,100498.16
2022-12-04T09:31:18.555Z,100494.38
2022-12-04T09:33:21.410Z,100487.94
2022-12-04T09:35:24.260Z,100490.56
2022-12-04T09:37:27.159Z,100485.19
2022-12-04T09:39:30.028Z,100488.19
2022-12-04T09:42:04.679Z,100494.16
2022-12-04T09:44:15.339Z,100487.81
2022-12-04T09:46:37.694Z,100495.53
2022-12-04T09:48:43.992Z,100498.38
2022-12-04T09:50:48.935Z,100493.81
2022-12-04T09:52:56.031Z,100485.47
2022-12-04T09:55:01.495Z,100481.72
2022-12-04T09:57:16.303Z,100482.25
2022-12-04T09:59:22.896Z,100483.72
2022-12-04T10:01:32.268Z,100471.09
2022-12-04T10:03:35.279Z,100472.88
2022-12-04T10:05:46.398Z,100475.41
2022-12-04T10:08:00.537Z,100468.75
2022-12-04T10:10:08.169Z,100464.59
2022-12-04T10:12:22.986Z,100461.84
2022-12-04T10:14:45.800Z,100457.38
2022-12-04T10:17:08.701Z,100462.47
2022-12-04T10:19:22.422Z,100463.59
2022-12-04T10:21:35.160Z,100453.94
2022-12-04T10:23:49.103Z,100444.69
2022-12-04T10:25:56.142Z,100442.09
2022-12-04T10:28:03.696Z,100437.69
2022-12-04T10:30:17.792Z,100434.22
2022-12-04T10:32:25.101Z,100428.09
2022-12-04T10:34:30.020Z,100425.44
2022-12-04T10:36:34.403Z,100425.16
2022-12-04T10:38:43.164Z,100423.34
2022-12-04T10:40:49.330Z,100413.91
2022-12-04T10:42:56.470Z,100414.50
2022-12-04T10:44:59.402Z,100420.16
2022-12-04T10:47:06.128Z,100414.28
2022-12-04T10:49:18.414Z,100413.16
2022-12-04T10:51:22.875Z,100419.41
2022-12-04T10:53:31.467Z,100422.63
2022-12-04T10:55:38.163Z,100412.09
2022-12-04T10:57:43.736Z,100413.66
2022-12-04T10:59:52.336Z,100413.94
2022-12-04T11:02:06.325Z,100409.47
2022-12-04T11:04:21.607Z,100403.25
2022-12-04T11:06:25.778Z,100408.56
2022-12-04T11:08:34.850Z,100405.88
2022-12-04T11:10:40.483Z,100408.56
2022-12-04T11:12:54.099Z,100405.44
2022-12-04T11:15:12.915Z,100406.16
2022-12-04T11:17:19.023Z,100406.16
2022-12-04T11:19:25.779Z,100408.56
2022-12-04T11:21:30.740Z,100402.44
2022-12-04T11:23:34.780Z,100409.81
2022-12-04T11:25:46.089Z,100405.72
2022-12-04T11:27:51.552Z,100401.31
2022-12-04T11:29:55.371Z,100413.38
2022-12-04T11:32:02.767Z,100411.88
2022-12-04T11:34:15.481Z,100409.09
2022-12-04T11:36:24.570Z,100424.53
2022-12-04T11:38:29.984Z,100415.84
2022-12-04T11:40:32.886Z,100420.97
2022-12-04T11:42:38.045Z,100425.03
2022-12-04T11:44:51.638Z,100422.63
2022-12-04T11:46:58.621Z,100419.94
2022-12-04T11:49:03.283Z,100421.69
2022-12-04T11:51:13.939Z,100429.78
2022-12-04T11:53:25.259Z,100430.00
2022-12-04T11:55:39.853Z,100433.31
2022-12-04T11:57:49.269Z,100429.41
2022-12-04T12:00:05.701Z,100425.44
2022-12-04T12:02:36.191Z,100426.41
2022-12-04T12:05:09.335Z,100422.28
2022-12-04T12:07:27.183Z,100414.19
2022-12-04T12:09:39.013Z,100414.69
2022-12-04T12:11:49.242Z,100415.59
2022-12-04T12:13:59.578Z,100412.56
2022-12-04T12:16:13.396Z,100410.56
2022-12-04T12:18:39.808Z,100410.34
2022-12-04T12:20:49.851Z,100409.41
2022-12-04T12:23:09.392Z,100416.34
2022-12-04T12:25:20.562Z,100417.38
2022-12-04T12:27:44.004Z,100406.22
2022-12-04T12:30:02.743Z,100406.84
2022-12-04T12:32:14.922Z,100407.72
2022-12-04T12:34:32.494Z,100417.38
2022-12-04T12:36:43.849Z,100426.28
2022-12-04T12:38:51.293Z,100426.22
2022-12-04T12:41:02.527Z,100418.88
2022-12-04T12:43:08.579Z,100424.06
2022-12-04T12:45:25.762Z,100415.38
2022-12-04T12:47:35.951Z,100409.75
2022-12-04T12:49:42.654Z,100411.59
2022-12-04T12:51:50.848Z,100410.22
2022-12-04T12:53:56.786Z,100400.78
2022-12-04T12:56:03.424Z,100395.59
2022-12-04T12:58:13.572Z,100393.72
2022-12-04T13:00:18.227Z,100393.41
2022-12-04T13:02:28.453Z,100388.34
2022-12-04T13:04:36.304Z,100398.75
2022-12-04T13:06:41.335Z,100387.88
2022-12-04T13:08:49.347Z,100384.59
2022-12-04T13:11:03.346Z,100374.03
2022-12-04T13:13:09.690Z,100368.88
2022-12-04T13:15:16.036Z,100356.78
2022-12-04T13:17:24.961Z,100356.53
2022-12-04T13:19:32.540Z,100348.72
2022-12-04T13:21:38.590Z,100351.09
2022-12-04T13:23:56.041Z,100346.06
2022-12-04T13:26:08.500Z,100349.34
2022-12-04T13:28:24.464Z,100353.22
2022-12-04T13:30:33.501Z,100353.28
2022-12-04T13:33:07.923Z,100353.50
2022-12-04T13:35:20.880Z,100358.66
2022-12-04T13:37:49.395Z,100357.69
2022-12-04T13:40:28.266Z,100364.78
2022-12-04T13:42:33.049Z,100358.72
2022-12-04T13:44:36.613Z,100354.25
2022-12-04T13:46:42.797Z,100346.47
2022-12-04T13:48:45.832Z,100348.94
2022-12-04T13:50:48.668Z,100353.78
2022-12-04T13:52:53.429Z,100355.78
2022-12-04T13:55:00.170Z,100350.66
2022-12-04T13:57:20.955Z,100351.75
2022-12-04T13:59:36.547Z,100356.53
2022-12-04T14:01:42.037Z,100344.50
2022-12-04T14:03:49.070Z,100342.88
2022-12-04T14:05:52.451Z,100341.44
2022-12-04T14:08:07.993Z,100338.06
2022-12-04T14:10:28.528Z,100338.13
2022-12-04T14:12:36.373Z,100331.03
2022-12-04T14:14:45.411Z,100336.19
2022-12-04T14:16:50.236Z,100336.25
2022-12-04T14:18:56.125Z,100344.50
2022-12-04T14:21:01.034Z,100343.56
2022-12-04T14:23:10.964Z,100341.47
2022-12-04T14:25:34.589Z,100349.41
2022-12-04T14:27:45.039Z,100368.22
2022-12-04T14:29:55.639Z,100369.22
2022-12-04T14:32:01.881Z,100367.69
2022-12-04T14:34:21.170Z,100372.56
2022-12-04T14:36:26.282Z,100375.34
2022-12-04T14:38:29.560Z,100390.28
2022-12-04T14:40:38.285Z,100389.59
2022-12-04T14:42:42.594Z,100391.81
2022-12-04T14:44:47.549Z,100392.69
2022-12-04T14:46:55.065Z,100390.03
2022-12-04T14:49:08.116Z,100390.56
2022-12-04T14:51:18.624Z,100385.19
2022-12-04T14:53:35.006Z,100397.75
2022-12-04T14:55:47.739Z,100391.66
2022-12-04T14:57:55.793Z,100385.53
2022-12-04T15:00:00.502Z,100389.03
2022-12-04T15:02:05.616Z,100377.13
2022-12-04T15:04:14.259Z,100377.56
2022-12-04T15:06:22.864Z,100378.78
2022-12-04T15:08:25.650Z,100369.13
2022-12-04T15:11:02.902Z,100375.88
2022-12-04T15:13:05.819Z,100373.25
2022-12-04T15:15:19.369Z,100375.25
2022-12-04T15:17:23.551Z,100363.31
2022-12-04T15:19:26.382Z,100366.88
2022-12-04T15:21:38.020Z,100363.34
2022-12-04T15:23:42.351Z,100360.50
2022-12-04T15:25:47.628Z,100357.13
2022-12-04T15:27:54.192Z,100355.53
2022-12-04T15:29:58.517Z,100351.47
2022-12-04T15:32:04.598Z,100352.66
2022-12-04T15:34:14.514Z,100354.44
2022-12-04T15:36:20.956Z,100359.81
2022-12-04T15:38:24.139Z,100369.75
2022-12-04T15:40:30.189Z,100370.31
2022-12-04T15:42:33.010Z,100368.66
2022-12-04T15:44:36.439Z,100370.22
2022-12-04T15:46:39.286Z,100374.44
2022-12-04T15:48:47.807Z,100382.03
2022-12-04T15:50:59.069Z,100385.41
2022-12-04T15:53:08.502Z,100392.31
2022-12-04T15:55:18.178Z,100377.97
2022-12-04T15:57:27.596Z,100380.41
2022-12-04T15:59:31.614Z,100387.97
2022-12-04T16:01:40.352Z,100379.56
2022-12-04T16:03:48.442Z,100386.91
2022-12-04T16:06:02.275Z,100376.38
2022-12-04T16:08:33.899Z,100370.44
2022-12-04T16:10:37.166Z,100362.25
2022-12-04T16:12:40.138Z,100363.06
2022-12-04T16:14:42.922Z,100371.59
2022-12-04T16:16:48.134Z,100367.97
2022-12-04T16:18:51.216Z,100366.97
2022-12-04T16:20:54.393Z,100376.25
2022-12-04T16:22:57.175Z,100375.69
2022-12-04T16:25:01.319Z,100380.16
2022-12-04T16:27:10.940Z,100385.28
2022-12-04T16:29:13.741Z,100386.09
2022-12-04T16:31:20.264Z,100396.22
2022-12-04T16:33:23.112Z,100396.44
2022-12-04T16:35:26.048Z,100390.88
2022-12-04T16:37:31.608Z,100396.38
2022-12-04T16:39:38.318Z,100387.81
2022-12-04T16:41:45.364Z,100386.91
2022-12-04T16:43:55.584Z,100389.03
2022-12-04T16:46:01.046Z,100383.69
2022-12-04T16:48:04.096Z,100378.44
2022-12-04T16:50:08.635Z,100376.22
2022-12-04T16:52:12.173Z,100371.84
2022-12-04T16:54:14.945Z,100376.16
2022-12-04T16:56:20.756Z,100370.97
2022-12-04T16:58:25.212Z,100365.94
2022-12-04T17:00:28.417Z,100370.81
2022-12-04T17:02:31.496Z,100363.63
2022-12-04T17:04:34.414Z,100365.88
2022-12-04T17:06:37.508Z,100370.09
2022-12-04T17:08:40.317Z,100367.75
2022-12-04T17:10:43.101Z,100360.31
2022-12-04T17:12:46.076Z,100362.66
2022-12-04T17:14:50.189Z,100364.03
2022-12-04T17:16:54.855Z,100369.28
2022-12-04T17:18:57.814Z,100361.31
2022-12-04T17:21:00.722Z,100359.84
2022-12-04T17:23:03.510Z,100354.19
2022-12-04T17:25:07.294Z,100358.25
2022-12-04T17:27:12.834Z,100356.88
2022-12-04T17:29:15.660Z,100341.13
2022-12-04T17:31:21.598Z,100355.69
2022-12-04T17:33:24.577Z,100348.91
2022-12-04T17:35:27.426Z,100349.75
2022-12-04T17:37:30.433Z,100348.22
2022-12-04T17:39:33.216Z,100348.66
2022-12-04T17:41:36.115Z,100334.31
2022-12-04T17:43:38.954Z,100336.44
2022-12-04T17:45:41.985Z,100331.22
2022-12-04T17:47:46.050Z,100335.00
2022-12-04T17:49:48.823Z,100331.69
2022-12-04T17:51:51.710Z,100338.75
2022-12-04T17:53:54.803Z,100336.25
2022-12-04T17:55:57.580Z,100347.41
2022-12-04T17:58:00.392Z,100349.84
2022-12-04T18:00:03.221Z,100352.66
2022-12-04T18:02:15.733Z,100366.22
2022-12-04T18:04:20.829Z,100367.13
2022-12-04T18:06:25.155Z,100373.81
2022-12-04T18:08:30.457Z,100374.81
2022-12-04T18:10:35.271Z,100374.53
2022-12-04T18:12:38.074Z,100384.38
2022-12-04T18:14:41.169Z,100382.28
2022-12-04T18:16:46.177Z,100384.38
2022-12-04T18:18:50.675Z,100379.63
2022-12-04T18:21:02.136Z,100375.97
2022-12-04T18:23:05.119Z,100381.84
2022-12-04T18:25:09.047Z,100381.03
2022-12-04T18:27:11.899Z,100381.84
2022-12-04T18:29:17.636Z,100378.16
2022-12-04T18:31:20.850Z,100378.88
2022-12-04T18:33:24.773Z,100378.88
2022-12-04T18:35:27.644Z,100379.91
2022-12-04T18:37:33.981Z,100378.38
2022-12-04T18:39:37.973Z,100379.69
2022-12-04T18:41:44.328Z,100385.97
2022-12-04T18:43:47.136Z,100379.69
2022-12-04T18:46:04.039Z,100376.38
2022-12-04T18:48:09.887Z,100383.53
2022-12-04T18:50:13.246Z,100383.28
2022-12-04T18:52:16.229Z,100380.97
2022-12-04T18:54:22.280Z,100379.75
2022-12-04T18:56:25.136Z,100374.69
2022-12-04T18:58:27.947Z,100383.78
2022-12-04T19:00:30.785Z,100378.25
2022-12-04T19:02:33.672Z,100382.22
2022-12-04T19:04:36.456Z,100377.19
2022-12-04T19:06:41.249Z,100380.41
2022-12-04T19:08:44.053Z,100382.16
2022-12-04T19:10:48.169Z,100387.97
2022-12-04T19:12:52.544Z,100389.47
2022-12-04T19:14:55.380Z,100391.00
2022-12-04T19:16:58.285Z,100395.19
2022-12-04T19:19:01.212Z,100391.06
2022-12-04T19:21:05.824Z,100396.94
2022-12-04T19:23:09.209Z,100398.97
2022-12-04T19:25:12.020Z,100393.44
2022-12-04T19:27:16.219Z,100402.09
2022-12-04T19:29:19.001Z,100403.19
2022-12-04T19:31:23.995Z,100397.75
2022-12-04T19:33:26.871Z,100404.34
2022-12-04T19:35:29.689Z,100405.75
2022-12-04T19:37:32.489Z,100412.50
2022-12-04T19:39:35.517Z,100417.75
2022-12-04T19:41:40.688Z,100421.19
2022-12-04T19:43:47.040Z,100425.44
2022-12-04T19:45:50.027Z,100425.69
2022-12-04T19:47:52.850Z,100429.81
2022-12-04T19:49:56.107Z,100427.53
2022-12-04T19:51:59.477Z,100426.69
2022-12-04T19:54:02.329Z,100423.81
2022-12-04T19:56:06.574Z,100430.06
2022-12-04T19:58:09.284Z,100436.34
2022-12-04T20:00:14.425Z,100431.81
2022-12-04T20:02:17.323Z,100436.28
2022-12-04T20:04:20.160Z,100441.19
2022-12-04T20:06:24.958Z,100435.97
2022-12-04T20:08:27.723Z,100439.47
2022-12-04T20:10:30.675Z,100445.50
2022-12-04T20:12:33.459Z,100442.84
2022-12-04T20:14:36.334Z,100450.00
2022-12-04T20:16:41.210Z,100451.78
2022-12-04T20:18:44.227Z,100451.31
2022-12-04T20:20:55.517Z,100445.03
2022-12-04T20:22:58.762Z,100448.25
2022-12-04T20:25:01.584Z,100444.00
2022-12-04T20:27:04.463Z,100446.81
2022-12-04T20:29:10.703Z,100452.69
2022-12-04T20:31:15.868Z,100450.63
2022-12-04T20:33:20.060Z,100454.53
2022-12-04T20:35:22.912Z,100452.75
2022-12-04T20:37:25.883Z,100445.88
2022-12-04T20:39:29.623Z,100454.91
2022-12-04T20:41:33.423Z,100454.03
2022-12-04T20:43:36.590Z,100462.69
2022-12-04T20:45:39.646Z,100455.91
2022-12-04T20:47:42.452Z,100452.88
2022-12-04T20:49:47.781Z,100451.38
2022-12-04T20:51:52.344Z,100459.41
2022-12-04T20:53:58.011Z,100457.03
2022-12-04T20:56:02.795Z,100462.31
2022-12-04T20:58:06.491Z,100457.34
2022-12-04T21:00:10.290Z,100459.22
2022-12-04T21:02:13.702Z,100460.41
2022-12-04T21:04:17.839Z,100455.84
2022-12-04T21:06:25.602Z,100457.78
2022-12-04T21:08:47.710Z,100465.69
2022-12-04T21:10:51.674Z,100459.34
2022-12-04T21:13:12.207Z,100460.31
2022-12-04T21:15:32.769Z,100455.16
2022-12-04T21:17:35.597Z,100460.41
2022-12-04T21:19:38.819Z,100456.88
2022-12-04T21:21:43.069Z,100449.75
2022-12-04T21:23:45.904Z,100451.16
2022-12-04T21:25:48.658Z,100455.59
2022-12-04T21:27:51.498Z,100459.91
2022-12-04T21:29:55.941Z,100452.81
2022-12-04T21:31:58.982Z,100456.53
2022-12-04T21:34:03.554Z,100459.22
2022-12-04T21:36:13.453Z,100453.78
2022-12-04T21:38:17.570Z,100455.41
2022-12-04T21:40:20.366Z,100452.41
2022-12-04T21:42:31.017Z,100454.41
2022-12-04T21:44:33.811Z,100456.91
2022-12-04T21:46:38.121Z,100455.22
2022-12-04T21:48:40.948Z,100455.59
2022-12-04T21:50:43.692Z,100459.63
2022-12-04T21:52:46.451Z,100466.69
2022-12-04T21:54:51.863Z,100463.06
2022-12-04T21:56:54.960Z,100462.25
2022-12-04T21:58:58.206Z,100469.28
2022-12-04T22:01:01.032Z,100471.59
2022-12-04T22:03:05.482Z,100466.53
2022-12-04T22:05:09.081Z,100477.56
2022-12-04T22:07:12.374Z,100481.44
2022-12-04T22:09:15.310Z,100483.75
2022-12-04T22:11:20.322Z,100485.66
2022-12-04T22:13:22.997Z,100491.84
2022-12-04T22:15:25.772Z,100487.72
2022-12-04T22:17:30.455Z,100486.66
2022-12-04T22:19:34.098Z,100486.53
2022-12-04T22:21:37.009Z,100484.72
2022-12-04T22:23:40.217Z,100479.63
2022-12-04T22:25:43.031Z,100488.66
2022-12-04T22:27:47.174Z,100485.13
2022-12-04T22:29:51.232Z,100492.56
2022-12-04T22:31:54.374Z,100491.81
2022-12-04T22:33:59.244Z,100498.19
2022-12-04T22:36:03.879Z,100498.94
2022-12-04T22:38:06.775Z,100494.88
2022-12-04T22:40:10.696Z,100500.72
2022-12-04T22:42:13.547Z,100499.06
2022-12-04T22:44:17.718Z,100497.34
2022-12-04T22:46:20.635Z,100505.00
2022-12-04T22:48:23.695Z,100505.97
2022-12-04T22:50:26.502Z,100506.50
2022-12-04T22:52:30.783Z,100507.75
2022-12-04T22:54:33.759Z,100512.91
2022-12-04T22:56:36.541Z,100511.25
2022-12-04T22:58:39.630Z,100515.53
2022-12-04T23:00:43.868Z,100525.06
2022-12-04T23:02:46.854Z,100523.44
2022-12-04T23:04:49.782Z,100521.84
2022-12-04T23:06:52.812Z,100519.53
2022-12-04T23:08:56.677Z,100509.50
2022-12-04T23:11:04.281Z,100512.88
2022-12-04T23:13:07.084Z,100512.88
2022-12-04T23:15:10.603Z,100506.69
2022-12-04T23:17:14.795Z,100506.75
2022-12-04T23:19:19.822Z,100504.09
2022-12-04T23:21:24.619Z,100506.06
2022-12-04T23:23:27.363Z,100507.22
2022-12-04T23:25:30.182Z,100507.97
2022-12-04T23:27:33.185Z,100508.06
2022-12-04T23:29:52.629Z,100507.34
2022-12-04T23:31:56.251Z,100515.25
2022-12-04T23:34:00.929Z,100512.47
2022-12-04T23:36:05.134Z,100514.13
2022-12-04T23:38:07.892Z,100518.97
2022-12-04T23:40:11.419Z,100519.66
2022-12-04T23:42:15.392Z,100522.19
2022-12-04T23:44:18.233Z,100516.19
2022-12-04T23:46:23.070Z,100518.13
2022-12-04T23:48:26.734Z,100527.63
2022-12-04T23:50:30.820Z,100527.56
2022-12-04T23:52:33.631Z,100536.09
2022-12-04T23:54:37.666Z,100537.88
2022-12-04T23:56:40.567Z,100539.88
2022-12-04T23:58:44.583Z,100545.75
